Time;durP1;ratioP1;P1;durP2;ratioP2;P2;SDS_P1;SDS_P2;PMS_P1;PMS_P2;Temp;Humidity;BMP_temperature;BMP_pressure;BME280_temperature;BME280_humidity;BME280_pressure;Samples;Min_cycle;Max_cycle;Signal;HPM_P1;HPM_P2
2022/04/11 00:01:03;;;;;;;59.13;9.87;;;;;;;;;;5064007;28;20214;-48
2022/04/11 00:03:29;;;;;;;42.07;7.20;;;;;;;;;;5062714;28;20184;-48
2022/04/11 00:05:55;;;;;;;56.10;9.13;;;;;;;;;;5062448;28;20199;-48
2022/04/11 00:08:22;;;;;;;59.40;9.93;;;;;;;;;;5063349;28;20547;-48
2022/04/11 00:10:48;;;;;;;42.57;7.27;;;;;;;;;;5055753;28;20238;-48
2022/04/11 00:13:14;;;;;;;54.60;9.07;;;;;;;;;;5061013;28;20183;-48
2022/04/11 00:15:41;;;;;;;51.87;8.77;;;;;;;;;;5058095;28;20659;-48
2022/04/11 00:18:07;;;;;;;60.07;9.93;;;;;;;;;;5058830;28;20691;-48
2022/04/11 00:20:33;;;;;;;81.93;12.97;;;;;;;;;;5057294;28;20321;-48
2022/04/11 00:22:59;;;;;;;45.80;7.83;;;;;;;;;;5065376;28;20191;-48
2022/04/11 00:25:25;;;;;;;51.93;8.80;;;;;;;;;;5060859;28;20255;-48
2022/04/11 00:27:54;;;;;;;59.30;9.83;;;;;;;;;;5060224;28;20309;-48
2022/04/11 00:30:20;;;;;;;61.40;10.17;;;;;;;;;;5058690;28;20184;-48
2022/04/11 00:32:46;;;;;;;74.33;12.20;;;;;;;;;;5058373;28;20188;-48
2022/04/11 00:35:13;;;;;;;49.30;8.23;;;;;;;;;;5061830;28;20183;-48
2022/04/11 00:37:39;;;;;;;50.80;8.23;;;;;;;;;;5065205;28;20567;-48
2022/04/11 00:40:06;;;;;;;51.83;8.57;;;;;;;;;;5061117;28;20179;-48
2022/04/11 00:42:32;;;;;;;70.80;11.40;;;;;;;;;;5061625;28;20328;-48
2022/04/11 00:45:01;;;;;;;75.63;11.93;;;;;;;;;;5058212;28;20265;-48
2022/04/11 00:47:28;;;;;;;44.43;7.53;;;;;;;;;;5066022;28;20188;-48
2022/04/11 00:49:55;;;;;;;70.73;11.50;;;;;;;;;;5059034;28;20179;-48
2022/04/11 00:52:21;;;;;;;61.70;9.97;;;;;;;;;;5059609;28;20277;-48
2022/04/11 00:54:47;;;;;;;59.50;9.70;;;;;;;;;;5059492;28;20551;-48
2022/04/11 00:57:15;;;;;;;58.40;9.93;;;;;;;;;;5058919;28;20675;-48
2022/04/11 00:59:41;;;;;;;74.87;12.13;;;;;;;;;;5061197;28;20175;-48
2022/04/11 01:02:07;;;;;;;53.10;8.80;;;;;;;;;;5061997;28;20640;-48
2022/04/11 01:04:34;;;;;;;60.77;9.77;;;;;;;;;;5062812;28;20191;-48
2022/04/11 01:06:59;;;;;;;42.87;7.27;;;;;;;;;;5064230;28;20272;-48
2022/04/11 01:09:26;;;;;;;87.70;14.17;;;;;;;;;;5057777;28;20184;-48
2022/04/11 01:11:52;;;;;;;70.57;11.80;;;;;;;;;;5061171;28;20720;-48
2022/04/11 01:14:19;;;;;;;63.97;10.50;;;;;;;;;;5061718;28;20186;-48
2022/04/11 01:16:51;;;;;;;61.87;10.13;;;;;;;;;;5060240;28;20199;-48
2022/04/11 01:19:18;;;;;;;18.07;3.57;;;;;;;;;;5061556;28;20787;-48
2022/04/11 01:21:44;;;;;;;69.00;11.10;;;;;;;;;;5057263;28;20185;-48
2022/04/11 01:24:10;;;;;;;62.47;10.33;;;;;;;;;;5058130;28;20183;-48
2022/04/11 01:26:39;;;;;;;51.93;8.77;;;;;;;;;;5062458;28;20245;-48
2022/04/11 01:29:05;;;;;;;57.00;9.57;;;;;;;;;;5055366;28;20175;-49
2022/04/11 01:31:32;;;;;;;49.50;8.37;;;;;;;;;;5060005;28;20179;-48
2022/04/11 01:33:58;;;;;;;77.87;12.57;;;;;;;;;;5058908;28;20194;-49
2022/04/11 01:36:24;;;;;;;61.73;10.67;;;;;;;;;;5058321;28;20570;-48
2022/04/11 01:38:50;;;;;;;63.23;10.57;;;;;;;;;;5061263;28;20571;-48
2022/04/11 01:41:16;;;;;;;60.77;10.03;;;;;;;;;;5063418;28;20528;-48
2022/04/11 01:43:42;;;;;;;78.60;12.80;;;;;;;;;;5060121;28;20245;-48
2022/04/11 01:46:08;;;;;;;73.90;12.13;;;;;;;;;;5059670;28;20199;-48
2022/04/11 01:48:34;;;;;;;46.33;7.93;;;;;;;;;;5058224;28;20264;-48
2022/04/11 01:51:00;;;;;;;56.93;9.67;;;;;;;;;;5057647;28;20550;-48
2022/04/11 01:53:26;;;;;;;56.10;9.57;;;;;;;;;;5062266;28;20199;-48
2022/04/11 01:55:52;;;;;;;51.87;8.73;;;;;;;;;;5064062;28;20241;-48
2022/04/11 01:58:18;;;;;;;64.57;10.60;;;;;;;;;;5062880;28;20746;-48
2022/04/11 02:00:44;;;;;;;76.33;12.67;;;;;;;;;;5060044;28;20179;-48
2022/04/11 02:03:10;;;;;;;51.30;8.80;;;;;;;;;;5062969;28;20190;-48
2022/04/11 02:05:37;;;;;;;79.37;13.10;;;;;;;;;;5061344;28;20212;-49
2022/04/11 02:08:05;;;;;;;59.30;9.73;;;;;;;;;;5058121;28;20183;-48
2022/04/11 02:10:30;;;;;;;46.47;7.83;;;;;;;;;;5060994;28;20738;-48
2022/04/11 02:12:58;;;;;;;75.57;12.23;;;;;;;;;;5060016;28;20211;-48
2022/04/11 02:15:24;;;;;;;70.33;11.53;;;;;;;;;;5061904;28;20276;-48
2022/04/11 02:17:50;;;;;;;48.33;8.20;;;;;;;;;;5060420;28;20671;-49
2022/04/11 02:20:16;;;;;;;56.60;9.50;;;;;;;;;;5057952;28;20187;-48
2022/04/11 02:22:49;;;;;;;54.93;9.13;;;;;;;;;;5064213;28;20189;-48
2022/04/11 02:25:15;;;;;;;64.40;10.40;;;;;;;;;;5061158;28;20179;-49
2022/04/11 02:27:41;;;;;;;72.67;11.63;;;;;;;;;;5058127;28;20286;-48
2022/04/11 02:30:08;;;;;;;49.87;8.43;;;;;;;;;;5062133;28;20183;-48
2022/04/11 02:32:34;;;;;;;51.03;8.73;;;;;;;;;;5061307;28;20248;-48
2022/04/11 02:35:00;;;;;;;66.10;10.77;;;;;;;;;;5060886;28;20218;-48
2022/04/11 02:37:26;;;;;;;46.13;7.77;;;;;;;;;;5062949;28;20235;-48
2022/04/11 02:39:51;;;;;;;50.23;8.33;;;;;;;;;;5061039;28;20648;-48
2022/04/11 02:42:21;;;;;;;36.43;7.90;;;;;;;;;;5064345;28;20543;-49
2022/04/11 02:44:47;;;;;;;57.53;9.90;;;;;;;;;;5064081;28;20267;-48
2022/04/11 02:47:13;;;;;;;54.60;9.73;;;;;;;;;;5066596;28;20298;-49
2022/04/11 02:49:39;;;;;;;52.53;8.90;;;;;;;;;;5066161;28;20237;-48
2022/04/11 02:52:05;;;;;;;79.23;13.33;;;;;;;;;;5062795;28;20714;-48
2022/04/11 02:54:31;;;;;;;55.80;9.67;;;;;;;;;;5066162;28;20214;-48
2022/04/11 02:56:57;;;;;;;34.53;6.23;;;;;;;;;;5063095;28;20227;-48
2022/04/11 02:59:23;;;;;;;54.77;9.40;;;;;;;;;;5065713;28;20440;-48
2022/04/11 03:01:49;;;;;;;57.83;9.73;;;;;;;;;;5069200;28;20492;-48
2022/04/11 03:04:18;;;;;;;59.73;10.07;;;;;;;;;;5066985;28;20182;-48
2022/04/11 03:06:44;;;;;;;68.80;11.73;;;;;;;;;;5059804;28;20207;-48
2022/04/11 03:09:10;;;;;;;61.17;10.27;;;;;;;;;;5065495;28;20190;-48
2022/04/11 03:11:36;;;;;;;41.13;7.33;;;;;;;;;;5062325;28;20186;-48
2022/04/11 03:14:02;;;;;;;34.93;6.33;;;;;;;;;;5065713;28;20263;-48
2022/04/11 03:16:28;;;;;;;53.00;9.20;;;;;;;;;;5058623;28;20214;-49
2022/04/11 03:18:54;;;;;;;37.93;6.93;;;;;;;;;;5063102;28;20203;-48
2022/04/11 03:21:20;;;;;;;58.53;9.47;;;;;;;;;;5061235;28;20187;-48
2022/04/11 03:23:46;;;;;;;50.00;8.23;;;;;;;;;;5060366;28;20336;-48
2022/04/11 03:26:12;;;;;;;50.90;8.37;;;;;;;;;;5064377;28;20209;-48
2022/04/11 03:28:38;;;;;;;78.40;12.40;;;;;;;;;;5064575;28;20584;-48
2022/04/11 03:31:04;;;;;;;47.20;8.10;;;;;;;;;;5059393;28;20190;-48
2022/04/11 03:33:30;;;;;;;48.70;8.17;;;;;;;;;;5063858;28;20183;-48
2022/04/11 03:35:56;;;;;;;41.37;6.97;;;;;;;;;;5065757;28;20264;-48
2022/04/11 03:38:22;;;;;;;67.37;11.40;;;;;;;;;;5065946;28;20200;-48
2022/04/11 03:40:48;;;;;;;57.73;10.57;;;;;;;;;;5066969;28;20183;-48
2022/04/11 03:43:14;;;;;;;69.60;17.27;;;;;;;;;;5057157;28;20595;-48
2022/04/11 03:45:40;;;;;;;25.43;4.83;;;;;;;;;;5062222;28;20210;-48
2022/04/11 03:48:06;;;;;;;66.33;11.30;;;;;;;;;;5063153;28;20194;-48
2022/04/11 03:50:32;;;;;;;51.83;13.47;;;;;;;;;;5063226;28;20186;-48
2022/04/11 03:52:58;;;;;;;81.80;20.83;;;;;;;;;;5066607;28;20179;-49
2022/04/11 03:55:24;;;;;;;63.20;13.23;;;;;;;;;;5059566;28;20226;-48
2022/04/11 03:57:50;;;;;;;66.47;17.97;;;;;;;;;;5063702;28;20205;-48
2022/04/11 04:00:16;;;;;;;52.23;11.43;;;;;;;;;;5061934;28;20535;-48
2022/04/11 04:02:43;;;;;;;58.40;12.73;;;;;;;;;;5062828;28;20525;-48
2022/04/11 04:05:09;;;;;;;68.43;14.20;;;;;;;;;;5062287;28;20198;-48
2022/04/11 04:07:36;;;;;;;80.57;35.33;;;;;;;;;;5058728;28;20665;-48
2022/04/11 04:10:03;;;;;;;70.23;25.07;;;;;;;;;;5065332;28;20204;-48
2022/04/11 04:12:28;;;;;;;57.70;18.37;;;;;;;;;;5063118;28;20217;-48
2022/04/11 04:14:55;;;;;;;69.70;18.40;;;;;;;;;;5058035;28;20222;-48
2022/04/11 04:17:21;;;;;;;78.60;20.70;;;;;;;;;;5063000;28;20210;-48
2022/04/11 04:19:47;;;;;;;83.40;20.03;;;;;;;;;;5062866;28;20187;-47
2022/04/11 04:22:13;;;;;;;68.57;17.07;;;;;;;;;;5062773;28;20282;-48
2022/04/11 04:24:40;;;;;;;21.03;6.47;;;;;;;;;;5064009;28;20617;-48
2022/04/11 04:27:06;;;;;;;58.47;14.17;;;;;;;;;;5064743;28;20214;-48
2022/04/11 04:29:32;;;;;;;85.63;19.90;;;;;;;;;;5057454;28;20267;-48
2022/04/11 04:31:58;;;;;;;77.90;18.40;;;;;;;;;;5065032;28;20547;-48
2022/04/11 04:34:25;;;;;;;53.17;12.70;;;;;;;;;;5064639;28;20184;-48
2022/04/11 04:36:51;;;;;;;52.63;13.17;;;;;;;;;;5058907;28;20205;-48
2022/04/11 04:39:17;;;;;;;52.50;12.80;;;;;;;;;;5058934;28;20229;-48
2022/04/11 04:41:43;;;;;;;85.33;19.40;;;;;;;;;;5064460;28;20215;-48
2022/04/11 04:44:09;;;;;;;44.77;10.83;;;;;;;;;;5064815;28;20540;-48
2022/04/11 04:46:35;;;;;;;58.73;13.57;;;;;;;;;;5057446;28;20213;-48
2022/04/11 04:49:02;;;;;;;73.73;17.07;;;;;;;;;;5058732;28;20191;-48
2022/04/11 04:51:28;;;;;;;37.07;9.63;;;;;;;;;;5060400;28;20187;-48
2022/04/11 04:53:55;;;;;;;32.00;8.10;;;;;;;;;;5061713;28;20563;-48
2022/04/11 04:56:21;;;;;;;52.43;12.40;;;;;;;;;;5068272;28;20210;-48
2022/04/11 04:58:47;;;;;;;72.33;16.53;;;;;;;;;;5059757;28;20293;-48
2022/04/11 05:01:14;;;;;;;59.23;13.53;;;;;;;;;;5058807;28;20274;-48
2022/04/11 05:03:40;;;;;;;66.50;15.80;;;;;;;;;;5062374;28;20596;-48
2022/04/11 05:06:06;;;;;;;61.70;14.10;;;;;;;;;;5056368;28;20285;-48
2022/04/11 05:08:32;;;;;;;49.17;11.27;;;;;;;;;;5057157;28;20261;-48
2022/04/11 05:10:58;;;;;;;51.27;11.53;;;;;;;;;;5061343;28;20175;-48
2022/04/11 05:13:24;;;;;;;48.27;11.03;;;;;;;;;;5065338;28;20232;-48
2022/04/11 05:15:50;;;;;;;49.47;11.67;;;;;;;;;;5064232;28;20210;-48
2022/04/11 05:18:16;;;;;;;52.50;12.13;;;;;;;;;;5061600;28;20655;-48
2022/04/11 05:20:42;;;;;;;56.77;12.93;;;;;;;;;;5067551;28;20183;-48
2022/04/11 05:23:08;;;;;;;77.63;18.17;;;;;;;;;;5068179;28;20270;-50
2022/04/11 05:25:34;;;;;;;60.00;13.53;;;;;;;;;;5070250;28;20202;-50
2022/04/11 05:28:00;;;;;;;49.23;11.13;;;;;;;;;;5070332;28;20191;-50
2022/04/11 05:30:26;;;;;;;23.50;5.93;;;;;;;;;;5069091;28;20187;-49
2022/04/11 05:32:52;;;;;;;42.73;9.83;;;;;;;;;;5070455;28;20182;-50
2022/04/11 05:35:18;;;;;;;74.33;15.93;;;;;;;;;;5070263;28;20207;-50
2022/04/11 05:37:44;;;;;;;40.87;9.37;;;;;;;;;;5060622;28;20203;-50
2022/04/11 05:40:12;;;;;;;46.53;10.40;;;;;;;;;;5062888;28;20187;-50
2022/04/11 05:42:38;;;;;;;52.37;11.73;;;;;;;;;;5069678;28;20229;-50
2022/04/11 05:45:05;;;;;;;69.90;15.17;;;;;;;;;;5069953;28;20174;-50
2022/04/11 05:47:31;;;;;;;71.80;15.10;;;;;;;;;;5069987;28;20224;-53
2022/04/11 05:49:57;;;;;;;53.80;11.47;;;;;;;;;;5069996;28;20601;-50
2022/04/11 05:52:23;;;;;;;47.03;10.30;;;;;;;;;;5069632;28;20253;-50
2022/04/11 05:54:49;;;;;;;61.30;13.27;;;;;;;;;;5069800;28;20179;-50
2022/04/11 05:57:15;;;;;;;97.90;21.20;;;;;;;;;;5069627;28;20268;-50
2022/04/11 05:59:41;;;;;;;74.93;15.90;;;;;;;;;;5069266;28;20179;-50
2022/04/11 06:02:10;;;;;;;77.80;16.37;;;;;;;;;;5069041;28;20175;-49
2022/04/11 06:04:37;;;;;;;43.20;9.40;;;;;;;;;;5070270;28;20554;-50
2022/04/11 06:07:04;;;;;;;36.00;8.10;;;;;;;;;;5069528;28;20206;-50
2022/04/11 06:09:30;;;;;;;58.80;12.27;;;;;;;;;;5067210;28;20188;-50
2022/04/11 06:11:56;;;;;;;52.53;11.20;;;;;;;;;;5053713;28;20180;-50
2022/04/11 06:14:22;;;;;;;50.63;10.93;;;;;;;;;;5053761;28;20665;-50
2022/04/11 06:16:48;;;;;;;54.63;11.43;;;;;;;;;;5054927;28;20191;-50
2022/04/11 06:19:14;;;;;;;70.87;14.77;;;;;;;;;;5073907;28;20210;-50
2022/04/11 06:21:40;;;;;;;47.70;10.30;;;;;;;;;;5073268;28;20255;-50
2022/04/11 06:24:07;;;;;;;83.50;17.40;;;;;;;;;;5067522;28;20229;-47
2022/04/11 06:26:33;;;;;;;386.20;85.83;;;;;;;;;;5044248;28;20218;-47
2022/04/11 06:28:58;;;;;;;115.47;24.67;;;;;;;;;;5048176;28;20191;-47
2022/04/11 06:31:24;;;;;;;108.57;23.90;;;;;;;;;;5055633;28;20639;-47
2022/04/11 06:33:50;;;;;;;84.30;18.63;;;;;;;;;;5058952;28;20194;-47
2022/04/11 06:36:16;;;;;;;90.70;19.53;;;;;;;;;;5059105;28;20211;-47
2022/04/11 06:38:42;;;;;;;96.07;21.13;;;;;;;;;;5058899;28;20202;-47
2022/04/11 06:41:08;;;;;;;123.23;27.10;;;;;;;;;;5057247;28;20266;-47
2022/04/11 06:43:34;;;;;;;73.27;16.43;;;;;;;;;;5059603;28;20547;-47
2022/04/11 06:46:00;;;;;;;97.43;22.17;;;;;;;;;;5057412;28;20203;-47
2022/04/11 06:48:26;;;;;;;113.07;24.53;;;;;;;;;;5055117;28;20444;-47
2022/04/11 06:50:53;;;;;;;41.00;9.07;;;;;;;;;;5066706;28;20537;-50
2022/04/11 06:53:19;;;;;;;54.97;11.27;;;;;;;;;;5056937;28;20176;-51
2022/04/11 06:55:47;;;;;;;60.43;12.83;;;;;;;;;;5069264;28;20206;-51
2022/04/11 06:58:13;;;;;;;48.03;10.43;;;;;;;;;;5068995;28;20750;-50
2022/04/11 07:00:39;;;;;;;41.80;9.37;;;;;;;;;;5061622;28;20185;-50
2022/04/11 07:03:05;;;;;;;47.73;10.13;;;;;;;;;;5065148;28;20864;-49
2022/04/11 07:05:31;;;;;;;56.20;12.03;;;;;;;;;;5071658;28;20205;-49
2022/04/11 07:07:57;;;;;;;62.93;13.67;;;;;;;;;;5068111;28;20210;-49
2022/04/11 07:10:23;;;;;;;52.57;11.13;;;;;;;;;;5072379;28;20175;-49
2022/04/11 07:12:49;;;;;;;38.23;8.53;;;;;;;;;;5065891;28;20261;-49
2022/04/11 07:15:15;;;;;;;42.70;9.40;;;;;;;;;;5065912;28;20206;-49
2022/04/11 07:17:42;;;;;;;37.73;8.23;;;;;;;;;;5072399;28;20566;-49
2022/04/11 07:20:09;;;;;;;67.73;15.03;;;;;;;;;;5071417;28;20195;-50
2022/04/11 07:22:35;;;;;;;44.53;10.17;;;;;;;;;;5052708;28;20178;-47
2022/04/11 07:25:01;;;;;;;64.10;14.20;;;;;;;;;;5063589;28;20175;-47
2022/04/11 07:27:27;;;;;;;61.77;13.90;;;;;;;;;;5072600;28;20229;-47
2022/04/11 07:29:53;;;;;;;51.93;12.13;;;;;;;;;;5070573;28;20226;-47
2022/04/11 07:32:19;;;;;;;34.57;7.93;;;;;;;;;;5072458;28;20667;-47
2022/04/11 07:34:45;;;;;;;52.53;12.93;;;;;;;;;;5071478;28;20248;-49
2022/04/11 07:37:11;;;;;;;53.53;14.40;;;;;;;;;;5067014;28;20671;-49
2022/04/11 07:39:38;;;;;;;57.27;15.00;;;;;;;;;;5071753;28;20276;-49
2022/04/11 07:42:04;;;;;;;49.17;13.03;;;;;;;;;;5071348;28;20187;-49
2022/04/11 07:44:30;;;;;;;84.60;22.10;;;;;;;;;;5071964;28;20186;-49
2022/04/11 07:46:56;;;;;;;60.07;16.93;;;;;;;;;;5071099;28;20202;-49
2022/04/11 07:49:22;;;;;;;71.87;19.80;;;;;;;;;;5065129;28;20190;-49
2022/04/11 07:51:48;;;;;;;58.83;22.20;;;;;;;;;;5067334;28;20646;-49
2022/04/11 07:54:14;;;;;;;67.83;35.20;;;;;;;;;;5057663;28;20516;-49
2022/04/11 07:56:40;;;;;;;57.20;39.07;;;;;;;;;;5062774;28;20204;-49
2022/04/11 07:59:06;;;;;;;94.87;58.80;;;;;;;;;;5060575;28;20632;-50
2022/04/11 08:01:32;;;;;;;125.30;80.50;;;;;;;;;;5058924;28;20599;-49
2022/04/11 08:06:28;;;;;;;51.77;8.23;;;;;;;;;;5055432;28;20629;-49
2022/04/11 08:08:55;;;;;;;42.57;7.23;;;;;;;;;;5032527;28;20585;-48
2022/04/11 08:11:20;;;;;;;48.80;8.07;;;;;;;;;;5029080;28;20239;-50
2022/04/11 08:13:46;;;;;;;27.50;4.90;;;;;;;;;;5027706;28;20180;-51
2022/04/11 08:16:13;;;;;;;35.43;6.20;;;;;;;;;;5026122;28;20612;-51
2022/04/11 08:18:39;;;;;;;60.23;9.57;;;;;;;;;;5045314;28;20180;-51
2022/04/11 08:21:05;;;;;;;33.60;5.80;;;;;;;;;;5027736;28;20188;-51
2022/04/11 08:23:31;;;;;;;32.20;5.73;;;;;;;;;;5027794;28;20180;-51
2022/04/11 08:25:58;;;;;;;26.90;4.90;;;;;;;;;;5026771;28;20247;-51
2022/04/11 08:28:24;;;;;;;32.93;5.87;;;;;;;;;;5027678;28;20235;-51
2022/04/11 08:30:51;;;;;;;37.60;6.70;;;;;;;;;;5026735;28;20260;-51
2022/04/11 08:33:17;;;;;;;32.13;5.47;;;;;;;;;;5031968;28;20541;-51
2022/04/11 08:35:43;;;;;;;51.17;8.40;;;;;;;;;;5024488;28;20584;-51
2022/04/11 08:38:09;;;;;;;56.87;9.33;;;;;;;;;;5026438;28;20177;-51
2022/04/11 08:40:35;;;;;;;62.90;10.23;;;;;;;;;;5014130;28;20650;-51
2022/04/11 08:43:02;;;;;;;41.83;6.70;;;;;;;;;;5023473;28;20568;-51
2022/04/11 08:45:28;;;;;;;38.10;6.53;;;;;;;;;;5042402;28;20210;-51
2022/04/11 08:47:56;;;;;;;54.67;9.07;;;;;;;;;;5031420;28;20261;-51
2022/04/11 08:50:22;;;;;;;51.13;8.30;;;;;;;;;;5025422;28;20199;-50
2022/04/11 08:52:49;;;;;;;43.77;7.47;;;;;;;;;;5026567;28;20242;-50
2022/04/11 08:55:15;;;;;;;48.47;8.10;;;;;;;;;;5026395;28;20661;-50
2022/04/11 08:57:41;;;;;;;62.90;10.50;;;;;;;;;;5026369;28;20211;-50
2022/04/11 09:00:33;;;;;;;65.13;10.83;;;;;;;;;;5026824;28;20554;-50
2022/04/11 09:02:59;;;;;;;57.70;10.03;;;;;;;;;;5017437;28;20193;-50
2022/04/11 09:05:27;;;;;;;59.23;10.63;;;;;;;;;;5024792;28;20216;-50
2022/04/11 09:07:53;;;;;;;47.43;8.13;;;;;;;;;;5026688;28;20548;-50
2022/04/11 09:10:20;;;;;;;48.33;8.43;;;;;;;;;;5025002;28;20185;-50
2022/04/11 09:12:47;;;;;;;64.00;10.73;;;;;;;;;;5034592;28;20188;-50
2022/04/11 09:15:13;;;;;;;58.23;9.90;;;;;;;;;;5026212;28;20200;-50
2022/04/11 09:17:43;;;;;;;60.40;9.93;;;;;;;;;;5013899;28;20255;-50
2022/04/11 09:20:16;;;;;;;45.17;8.07;;;;;;;;;;5008119;28;20239;-50
2022/04/11 09:22:43;;;;;;;72.83;12.17;;;;;;;;;;5008959;28;20196;-50
2022/04/11 09:25:09;;;;;;;65.83;10.90;;;;;;;;;;5012276;28;20192;-50
2022/04/11 09:27:35;;;;;;;57.40;9.90;;;;;;;;;;5012280;28;20189;-50
2022/04/11 09:30:01;;;;;;;58.03;9.83;;;;;;;;;;5012064;28;20193;-50
2022/04/11 09:32:27;;;;;;;65.57;11.00;;;;;;;;;;5012737;28;20235;-50
2022/04/11 09:34:53;;;;;;;60.20;10.10;;;;;;;;;;5012837;28;20219;-50
2022/04/11 09:37:20;;;;;;;60.80;10.10;;;;;;;;;;5011193;28;20204;-50
2022/04/11 09:39:53;;;;;;;55.67;9.47;;;;;;;;;;5006140;28;20192;-50
2022/04/11 09:42:29;;;;;;;53.63;9.20;;;;;;;;;;5004854;28;20176;-50
2022/04/11 09:44:59;;;;;;;72.37;12.40;;;;;;;;;;5011110;28;20185;-50
2022/04/11 09:47:25;;;;;;;54.03;9.37;;;;;;;;;;5026741;28;20208;-50
2022/04/11 09:49:51;;;;;;;74.27;13.23;;;;;;;;;;5011946;28;20189;-50
2022/04/11 09:52:17;;;;;;;61.73;11.20;;;;;;;;;;5012674;28;20180;-50
2022/04/11 09:54:44;;;;;;;67.60;12.53;;;;;;;;;;5012108;28;20201;-50
2022/04/11 09:57:11;;;;;;;72.73;13.63;;;;;;;;;;5007649;28;20610;-50
2022/04/11 09:59:39;;;;;;;37.30;7.43;;;;;;;;;;5012270;28;20207;-50
2022/04/11 10:02:06;;;;;;;66.47;12.50;;;;;;;;;;5005437;28;20196;-50
2022/04/11 10:04:33;;;;;;;82.27;14.63;;;;;;;;;;5012117;28;20193;-50
2022/04/11 10:06:59;;;;;;;83.03;14.83;;;;;;;;;;5024461;28;20538;-50
2022/04/11 10:09:25;;;;;;;58.13;10.97;;;;;;;;;;5025049;28;20196;-50
2022/04/11 10:11:52;;;;;;;47.27;9.37;;;;;;;;;;5011897;28;20181;-50
2022/04/11 10:14:28;;;;;;;72.50;15.77;;;;;;;;;;5012205;28;20172;-50
2022/04/11 10:17:01;;;;;;;67.67;15.77;;;;;;;;;;5011606;28;20543;-50
2022/04/11 10:19:31;;;;;;;48.43;10.97;;;;;;;;;;5011250;28;20496;-50
2022/04/11 10:22:12;;;;;;;52.60;12.97;;;;;;;;;;5011446;28;20183;-50
2022/04/11 10:24:57;;;;;;;63.63;16.10;;;;;;;;;;5011751;28;20181;-50
2022/04/11 10:27:25;;;;;;;66.17;16.67;;;;;;;;;;5010043;28;20264;-50
2022/04/11 10:29:55;;;;;;;73.90;29.83;;;;;;;;;;5010961;28;20685;-50
2022/04/11 10:32:22;;;;;;;67.07;17.13;;;;;;;;;;5013809;28;20280;-50
2022/04/11 10:35:05;;;;;;;107.40;20.77;;;;;;;;;;5010914;28;20291;-50
2022/04/11 10:37:40;;;;;;;55.37;10.93;;;;;;;;;;5012107;28;20173;-50
2022/04/11 10:40:21;;;;;;;74.30;15.53;;;;;;;;;;5011404;28;20476;-50
2022/04/11 10:43:11;;;;;;;75.77;16.00;;;;;;;;;;5010427;28;20177;-50
2022/04/11 10:45:55;;;;;;;82.93;18.77;;;;;;;;;;5010465;28;20308;-50
2022/04/11 10:48:24;;;;;;;63.07;14.70;;;;;;;;;;4991958;28;20181;-50
2022/04/11 10:50:53;;;;;;;63.97;15.87;;;;;;;;;;4992234;28;20600;-51
2022/04/11 10:53:27;;;;;;;63.07;16.10;;;;;;;;;;5007161;28;20660;-51
2022/04/11 10:56:00;;;;;;;65.10;15.73;;;;;;;;;;5009893;28;20212;-51
2022/04/11 10:58:47;;;;;;;69.33;16.57;;;;;;;;;;5011399;28;20239;-51
2022/04/11 11:01:13;;;;;;;76.17;18.10;;;;;;;;;;5007248;28;20224;-51
2022/04/11 11:03:42;;;;;;;75.80;18.00;;;;;;;;;;5009922;28;20185;-51
2022/04/11 11:06:35;;;;;;;84.87;19.70;;;;;;;;;;5010576;28;20219;-51
2022/04/11 11:09:15;;;;;;;66.97;17.10;;;;;;;;;;5008757;28;20207;-51
2022/04/11 11:11:41;;;;;;;61.63;15.50;;;;;;;;;;5011019;28;20192;-51
2022/04/11 11:14:27;;;;;;;68.57;17.47;;;;;;;;;;5011254;28;20189;-51
2022/04/11 11:16:58;;;;;;;69.77;19.40;;;;;;;;;;5009039;28;20283;-51
2022/04/11 11:19:24;;;;;;;82.47;36.20;;;;;;;;;;5020177;28;20655;-51
2022/04/11 11:21:53;;;;;;;73.97;51.10;;;;;;;;;;5009232;28;20619;-51
2022/04/11 11:24:19;;;;;;;102.20;40.43;;;;;;;;;;5015975;28;20195;-51
2022/04/11 11:26:46;;;;;;;81.63;36.43;;;;;;;;;;5028860;28;20283;-51
2022/04/11 11:29:16;;;;;;;91.37;36.33;;;;;;;;;;5009549;28;20192;-52
2022/04/11 11:31:42;;;;;;;85.77;30.17;;;;;;;;;;4990025;28;20610;-51
2022/04/11 11:34:11;;;;;;;84.40;26.17;;;;;;;;;;4994786;28;20542;-51
2022/04/11 11:36:38;;;;;;;85.00;30.63;;;;;;;;;;5009475;28;20628;-49
2022/04/11 11:39:13;;;;;;;66.33;22.03;;;;;;;;;;5009415;28;20192;-49
2022/04/11 11:41:42;;;;;;;81.63;25.30;;;;;;;;;;5024599;28;20176;-49
2022/04/11 11:44:09;;;;;;;64.13;22.67;;;;;;;;;;5009281;28;20181;-49
2022/04/11 11:46:50;;;;;;;80.67;27.73;;;;;;;;;;5008497;28;20227;-49
2022/04/11 11:49:16;;;;;;;82.67;28.97;;;;;;;;;;5009251;28;20561;-49
2022/04/11 11:51:42;;;;;;;78.47;29.00;;;;;;;;;;5008668;28;20200;-51
2022/04/11 11:54:08;;;;;;;70.97;34.10;;;;;;;;;;5009359;28;20185;-51
2022/04/11 11:56:41;;;;;;;116.67;73.63;;;;;;;;;;5017441;28;20205;-51
2022/04/11 11:59:07;;;;;;;99.87;73.77;;;;;;;;;;5009534;28;20669;-52
2022/04/11 12:01:33;;;;;;;119.37;88.03;;;;;;;;;;5008892;28;20216;-52
2022/04/11 12:06:44;;;;;;;164.80;100.43;;;;;;;;;;5010190;28;20278;-52
2022/04/11 12:09:10;;;;;;;164.63;101.83;;;;;;;;;;5009149;28;20212;-51
2022/04/11 12:11:36;;;;;;;177.77;108.60;;;;;;;;;;5008799;28;20215;-52
2022/04/11 12:14:03;;;;;;;164.23;103.83;;;;;;;;;;5008800;28;20212;-51
2022/04/11 12:16:30;;;;;;;207.20;116.67;;;;;;;;;;5008730;28;20204;-50
2022/04/11 12:18:57;;;;;;;181.27;106.23;;;;;;;;;;5009466;28;20185;-50
2022/04/11 12:21:52;;;;;;;183.33;106.90;;;;;;;;;;5008220;28;20196;-50
2022/04/11 12:24:30;;;;;;;227.97;123.07;;;;;;;;;;4985118;28;20272;-51
2022/04/11 12:26:56;;;;;;;307.40;146.13;;;;;;;;;;5002371;28;20197;-50
2022/04/11 12:29:23;;;;;;;335.83;154.17;;;;;;;;;;5008738;28;20173;-50
2022/04/11 12:31:55;;;;;;;316.90;150.83;;;;;;;;;;5005606;28;20256;-50
2022/04/11 12:34:31;;;;;;;315.30;148.23;;;;;;;;;;5008210;28;20193;-50
2022/04/11 12:37:02;;;;;;;320.87;150.60;;;;;;;;;;5009039;28;20196;-50
2022/04/11 12:39:28;;;;;;;332.80;156.40;;;;;;;;;;5008584;28;20170;-50
2022/04/11 12:41:55;;;;;;;342.73;159.50;;;;;;;;;;5008526;28;20257;-50
2022/04/11 12:44:33;;;;;;;359.80;168.97;;;;;;;;;;5008260;28;20177;-50
2022/04/11 12:46:59;;;;;;;352.57;165.90;;;;;;;;;;5000630;28;20597;-50
2022/04/11 12:49:25;;;;;;;335.07;160.60;;;;;;;;;;4988549;28;20251;-50
2022/04/11 12:51:58;;;;;;;329.47;156.57;;;;;;;;;;4989541;28;20223;-50
2022/04/11 12:54:34;;;;;;;311.60;155.83;;;;;;;;;;4990761;28;20300;-50
2022/04/11 12:57:01;;;;;;;267.57;137.47;;;;;;;;;;4992139;28;20620;-50
2022/04/11 12:59:27;;;;;;;241.23;131.27;;;;;;;;;;4992541;28;20177;-50
2022/04/11 13:01:54;;;;;;;252.43;136.10;;;;;;;;;;4991244;28;20229;-50
2022/04/11 13:04:21;;;;;;;253.90;134.93;;;;;;;;;;4967034;28;20252;-50
2022/04/11 13:06:51;;;;;;;251.37;134.47;;;;;;;;;;4972698;28;20264;-50
2022/04/11 13:09:17;;;;;;;260.90;137.27;;;;;;;;;;4972188;28;20222;-50
2022/04/11 13:11:44;;;;;;;321.50;168.30;;;;;;;;;;4972295;28;20244;-50
2022/04/11 13:14:10;;;;;;;344.73;174.37;;;;;;;;;;4963274;28;20179;-50
2022/04/11 13:19:21;;;;;;;320.17;157.03;;;;;;;;;;4972360;28;20225;-50
2022/04/11 13:21:48;;;;;;;344.67;165.90;;;;;;;;;;4968618;28;20223;-50
2022/04/11 13:24:14;;;;;;;327.80;151.27;;;;;;;;;;4987535;28;20221;-50
2022/04/11 13:26:40;;;;;;;327.27;157.47;;;;;;;;;;4972334;28;20510;-50
2022/04/11 13:29:06;;;;;;;293.97;150.80;;;;;;;;;;4972892;28;20728;-50
2022/04/11 13:31:32;;;;;;;310.50;155.67;;;;;;;;;;4990186;28;20241;-50
2022/04/11 13:33:58;;;;;;;322.77;162.27;;;;;;;;;;4992067;28;20303;-50
2022/04/11 13:36:24;;;;;;;301.53;156.90;;;;;;;;;;4972589;28;20235;-50
2022/04/11 13:38:50;;;;;;;308.83;159.87;;;;;;;;;;4956811;28;20264;-50
2022/04/11 13:41:16;;;;;;;288.87;149.23;;;;;;;;;;4972451;28;20265;-51
2022/04/11 13:43:42;;;;;;;257.87;138.40;;;;;;;;;;4972115;28;20220;-50
2022/04/11 13:46:08;;;;;;;284.13;150.97;;;;;;;;;;4971264;28;20230;-51
2022/04/11 13:48:34;;;;;;;275.33;149.63;;;;;;;;;;4971875;28;20675;-51
2022/04/11 13:51:00;;;;;;;297.83;153.70;;;;;;;;;;4972864;28;20242;-50
2022/04/11 13:53:29;;;;;;;304.33;157.47;;;;;;;;;;4972572;28;20179;-50
2022/04/11 13:55:56;;;;;;;331.77;171.10;;;;;;;;;;4971310;28;20292;-50
2022/04/11 13:58:22;;;;;;;267.50;141.83;;;;;;;;;;4971576;28;20839;-50
2022/04/11 14:00:48;;;;;;;278.20;148.53;;;;;;;;;;4971486;28;20222;-50
2022/04/11 14:03:14;;;;;;;277.10;146.17;;;;;;;;;;4971331;28;20709;-50
2022/04/11 14:05:41;;;;;;;281.03;152.40;;;;;;;;;;4971110;28;20230;-50
2022/04/11 14:08:07;;;;;;;292.73;154.43;;;;;;;;;;4986891;28;20269;-50
2022/04/11 14:10:33;;;;;;;278.03;151.73;;;;;;;;;;4990314;28;20260;-50
2022/04/11 14:12:59;;;;;;;238.87;135.07;;;;;;;;;;4991085;28;20272;-51
2022/04/11 14:15:25;;;;;;;256.73;142.93;;;;;;;;;;4990423;28;20233;-50
2022/04/11 14:17:51;;;;;;;209.50;123.63;;;;;;;;;;4990969;28;20295;-50
2022/04/11 14:20:17;;;;;;;182.33;118.17;;;;;;;;;;4990883;28;20615;-50
2022/04/11 14:22:43;;;;;;;201.87;121.73;;;;;;;;;;4991142;28;20220;-50
2022/04/11 14:25:09;;;;;;;145.97;98.03;;;;;;;;;;4991092;28;20237;-50